Time,TemperatureF,DewpointF,PressureIn,WindDirection,WindDirectionDegrees,WindSpeedMPH,WindSpeedGustMPH,Humidity,HourlyPrecipIn,Conditions,Clouds,dailyrainin,SoftwareType,DateUTC
2013-04-26 00:01:00,47.9,44.8,30.07,NNW,342,0.0,0.0,89,0.00,,,0.00,WeatherCatV1.15B25,2013-04-26 07:01:00,
2013-04-26 00:06:00,47.8,44.7,30.07,NNW,342,0.0,0.0,89,0.00,,,0.00,WeatherCatV1.15B25,2013-04-26 07:06:00,
2013-04-26 00:11:00,47.8,45.0,30.07,NNW,342,0.0,0.0,90,0.00,,,0.00,WeatherCatV1.15B25,2013-04-26 07:11:00,
2013-04-26 00:16:00,47.8,45.0,30.06,NNW,342,0.0,0.0,90,0.00,,,0.00,WeatherCatV1.15B25,2013-04-26 07:16:00,
2013-04-26 00:21:00,48.0,44.6,30.06,NNW,342,0.0,0.0,88,0.00,,,0.00,WeatherCatV1.15B25,2013-04-26 07:21:00,
2013-04-26 00:26:00,48.4,45.0,30.06,NNW,342,0.0,0.0,88,0.00,,,0.00,WeatherCatV1.15B25,2013-04-26 07:26:00,
2013-04-26 00:31:00,48.7,45.0,30.07,NNW,342,0.0,0.0,87,0.00,,,0.00,WeatherCatV1.15B25,2013-04-26 07:31:00,
2013-04-26 00:36:00,48.8,45.1,30.07,NNW,342,0.0,0.0,87,0.00,,,0.00,WeatherCatV1.15B25,2013-04-26 07:36:00,
2013-04-26 00:41:00,48.8,45.1,30.07,NNW,342,0.0,0.0,87,0.00,,,0.00,WeatherCatV1.15B25,2013-04-26 07:41:00,
2013-04-26 00:46:00,48.8,45.1,30.07,NNW,342,0.0,0.0,87,0.00,,,0.00,WeatherCatV1.15B25,2013-04-26 07:46:00,
2013-04-26 00:51:00,48.8,45.1,30.07,NNW,342,0.0,0.0,87,0.00,,,0.00,WeatherCatV1.15B25,2013-04-26 07:51:00,
2013-04-26 00:56:00,48.7,45.0,30.07,NNW,342,0.0,0.0,87,0.00,,,0.00,WeatherCatV1.15B25,2013-04-26 07:56:00,
2013-04-26 01:01:00,48.6,44.6,30.07,NNW,342,0.0,0.0,86,0.00,,,0.00,WeatherCatV1.15B25,2013-04-26 08:01:00,
2013-04-26 01:06:00,48.5,44.5,30.07,NNW,342,0.0,0.0,86,0.00,,,0.00,WeatherCatV1.15B25,2013-04-26 08:06:00,
2013-04-26 01:11:00,48.4,44.4,30.07,NNW,342,0.0,0.0,86,0.00,,,0.00,WeatherCatV1.15B25,2013-04-26 08:11:00,
2013-04-26 01:16:00,48.3,44.3,30.06,NNW,342,0.0,0.0,86,0.00,,,0.00,WeatherCatV1.15B25,2013-04-26 08:16:00,
2013-04-26 01:21:00,48.3,44.3,30.06,NNW,342,0.0,0.0,86,0.00,,,0.00,WeatherCatV1.15B25,2013-04-26 08:21:00,
2013-04-26 01:26:00,48.2,44.2,30.06,NNW,342,0.0,0.0,86,0.00,,,0.00,WeatherCatV1.15B25,2013-04-26 08:26:00,
2013-04-26 01:31:00,48.2,44.2,30.07,NNW,342,0.0,0.0,86,0.00,,,0.00,WeatherCatV1.15B25,2013-04-26 08:31:00,
2013-04-26 01:36:00,48.1,44.1,30.07,NNW,342,0.0,0.0,86,0.00,,,0.00,WeatherCatV1.15B25,2013-04-26 08:36:00,
2013-04-26 01:41:00,48.1,44.1,30.07,NNW,342,0.0,0.0,86,0.00,,,0.00,WeatherCatV1.15B25,2013-04-26 08:41:00,
2013-04-26 01:46:00,48.0,44.0,30.06,NNW,342,0.0,0.0,86,0.00,,,0.00,WeatherCatV1.15B25,2013-04-26 08:46:00,
2013-04-26 01:51:00,47.9,43.9,30.06,NNW,342,0.0,0.0,86,0.00,,,0.00,WeatherCatV1.15B25,2013-04-26 08:51:00,
2013-04-26 01:56:00,47.8,44.1,30.06,NNW,342,0.0,0.0,87,0.00,,,0.00,WeatherCatV1.15B25,2013-04-26 08:56:00,
2013-04-26 02:00:00,47.8,44.1,30.07,NNW,342,0.0,0.0,87,0.00,,,0.00,WeatherCatV1.15B25,2013-04-26 09:00:00,
2013-04-26 02:05:00,47.7,44.0,30.07,NNW,342,0.0,0.0,87,0.00,,,0.00,WeatherCatV1.15B25,2013-04-26 09:05:00,
2013-04-26 02:10:00,47.7,44.0,30.07,NNW,342,0.0,0.0,87,0.00,,,0.00,WeatherCatV1.15B25,2013-04-26 09:10:00,
2013-04-26 02:15:00,47.6,43.9,30.06,NNW,342,0.0,0.0,87,0.00,,,0.00,WeatherCatV1.15B25,2013-04-26 09:15:00,
2013-04-26 02:20:00,47.6,43.3,30.06,NNW,342,0.0,0.0,85,0.00,,,0.00,WeatherCatV1.15B25,2013-04-26 09:20:00,
2013-04-26 02:25:00,47.6,43.0,30.06,NNW,342,0.0,0.0,84,0.00,,,0.00,WeatherCatV1.15B25,2013-04-26 09:25:00,
2013-04-26 02:30:00,47.7,42.8,30.06,NNW,342,0.0,0.0,83,0.00,,,0.00,WeatherCatV1.15B25,2013-04-26 09:30:00,
2013-04-26 02:35:00,47.8,42.9,30.06,NNW,342,0.0,0.0,83,0.00,,,0.00,WeatherCatV1.15B25,2013-04-26 09:35:00,
2013-04-26 02:40:00,47.9,43.0,30.06,NNW,342,0.0,0.0,83,0.00,,,0.00,WeatherCatV1.15B25,2013-04-26 09:40:00,
2013-04-26 02:45:00,48.1,42.9,30.06,NNW,342,0.0,0.0,82,0.00,,,0.00,WeatherCatV1.15B25,2013-04-26 09:45:00,
2013-04-26 02:50:00,48.4,43.2,30.06,NNW,342,0.0,0.0,82,0.00,,,0.00,WeatherCatV1.15B25,2013-04-26 09:50:00,
2013-04-26 02:55:00,48.7,43.1,30.06,NNW,342,0.0,0.0,81,0.00,,,0.00,WeatherCatV1.15B25,2013-04-26 09:55:00,
2013-04-26 03:00:00,49.0,43.1,30.06,NNW,342,0.0,0.0,80,0.00,,,0.00,WeatherCatV1.15B25,2013-04-26 10:00:00,
2013-04-26 03:05:00,49.3,42.7,30.06,NNW,342,0.0,0.0,78,0.00,,,0.00,WeatherCatV1.15B25,2013-04-26 10:05:00,
2013-04-26 03:10:00,49.4,42.5,30.06,NNW,342,0.0,0.0,77,0.00,,,0.00,WeatherCatV1.15B25,2013-04-26 10:10:00,
2013-04-26 03:15:00,49.6,43.0,30.06,NNW,342,0.0,0.0,78,0.00,,,0.00,WeatherCatV1.15B25,2013-04-26 10:15:00,
2013-04-26 03:20:00,49.8,42.9,30.06,NNW,342,0.0,0.0,77,0.00,,,0.00,WeatherCatV1.15B25,2013-04-26 10:20:00,
2013-04-26 03:25:00,49.9,42.3,30.06,NNW,342,0.0,0.0,75,0.00,,,0.00,WeatherCatV1.15B25,2013-04-26 10:25:00,
2013-04-26 03:30:00,50.0,42.0,30.06,NNW,342,0.0,0.0,74,0.00,,,0.00,WeatherCatV1.15B25,2013-04-26 10:30:00,
2013-04-26 03:35:00,50.1,41.8,30.06,NNW,342,0.0,0.0,73,0.00,,,0.00,WeatherCatV1.15B25,2013-04-26 10:35:00,
2013-04-26 03:40:00,50.2,41.5,30.06,NNW,342,0.0,0.0,72,0.00,,,0.00,WeatherCatV1.15B25,2013-04-26 10:40:00,
2013-04-26 03:45:00,50.4,41.7,30.07,NNW,342,0.0,0.0,72,0.00,,,0.00,WeatherCatV1.15B25,2013-04-26 10:45:00,
2013-04-26 03:50:00,50.5,41.8,30.07,NNW,342,0.0,0.0,72,0.00,,,0.00,WeatherCatV1.15B25,2013-04-26 10:50:00,
2013-04-26 03:55:00,50.4,41.7,30.07,NNW,342,0.0,0.0,72,0.00,,,0.00,WeatherCatV1.15B25,2013-04-26 10:55:00,
2013-04-26 04:00:00,50.4,41.4,30.07,NNW,342,0.0,0.0,71,0.00,,,0.00,WeatherCatV1.15B25,2013-04-26 11:00:00,
2013-04-26 04:05:00,50.3,40.9,30.07,NNW,342,0.0,0.0,70,0.00,,,0.00,WeatherCatV1.15B25,2013-04-26 11:05:00,
2013-04-26 04:10:00,50.2,41.2,30.07,NNW,342,0.0,0.0,71,0.00,,,0.00,WeatherCatV1.15B25,2013-04-26 11:10:00,
2013-04-26 04:15:00,50.1,40.7,30.07,NNW,342,0.0,0.0,70,0.00,,,0.00,WeatherCatV1.15B25,2013-04-26 11:15:00,
2013-04-26 04:20:00,50.1,41.1,30.07,NNW,342,0.0,0.0,71,0.00,,,0.00,WeatherCatV1.15B25,2013-04-26 11:20:00,
2013-04-26 04:25:00,50.1,41.4,30.07,NNW,342,0.0,0.0,72,0.00,,,0.00,WeatherCatV1.15B25,2013-04-26 11:25:00,
2013-04-26 04:30:00,50.2,42.2,30.07,NNW,342,0.0,0.0,74,0.00,,,0.00,WeatherCatV1.15B25,2013-04-26 11:30:00,
2013-04-26 04:35:00,50.4,42.4,30.07,NNW,342,0.0,0.0,74,0.00,,,0.00,WeatherCatV1.15B25,2013-04-26 11:35:00,
2013-04-26 04:40:00,50.7,42.7,30.07,NNW,342,0.0,0.0,74,0.00,,,0.00,WeatherCatV1.15B25,2013-04-26 11:40:00,
2013-04-26 04:45:00,50.9,42.9,30.07,NNW,342,0.0,0.0,74,0.00,,,0.00,WeatherCatV1.15B25,2013-04-26 11:45:00,
2013-04-26 04:50:00,51.0,42.7,30.07,NNW,342,0.0,0.0,73,0.00,,,0.00,WeatherCatV1.15B25,2013-04-26 11:50:00,
2013-04-26 04:55:00,51.1,42.4,30.07,NNW,342,0.0,0.0,72,0.00,,,0.00,WeatherCatV1.15B25,2013-04-26 11:55:00,
2013-04-26 05:00:00,50.9,42.6,30.07,NNW,342,0.0,1.0,73,0.00,,,0.00,WeatherCatV1.15B25,2013-04-26 12:00:00,
2013-04-26 05:05:00,50.6,39.3,30.07,NNW,342,0.0,0.0,65,0.00,,,0.00,WeatherCatV1.15B25,2013-04-26 12:05:00,
2013-04-26 05:10:00,50.5,38.8,30.07,NNW,342,0.0,0.0,64,0.00,,,0.00,WeatherCatV1.15B25,2013-04-26 12:10:00,
2013-04-26 05:15:00,50.5,39.6,30.07,NNW,342,0.0,0.0,66,0.00,,,0.00,WeatherCatV1.15B25,2013-04-26 12:15:00,
2013-04-26 05:20:00,50.4,40.2,30.07,NNW,342,0.0,0.0,68,0.00,,,0.00,WeatherCatV1.15B25,2013-04-26 12:20:00,
2013-04-26 05:25:00,50.4,40.6,30.07,NNW,342,0.0,0.0,69,0.00,,,0.00,WeatherCatV1.15B25,2013-04-26 12:25:00,
2013-04-26 05:30:00,50.6,41.2,30.07,NNW,342,0.0,0.0,70,0.00,,,0.00,WeatherCatV1.15B25,2013-04-26 12:30:00,
2013-04-26 05:35:00,50.8,41.7,30.07,NNW,342,0.0,0.0,71,0.00,,,0.00,WeatherCatV1.15B25,2013-04-26 12:35:00,
2013-04-26 05:40:00,50.9,41.8,30.07,NNW,342,0.0,0.0,71,0.00,,,0.00,WeatherCatV1.15B25,2013-04-26 12:40:00,
2013-04-26 05:45:00,51.0,41.9,30.07,NNW,342,0.0,0.0,71,0.00,,,0.00,WeatherCatV1.15B25,2013-04-26 12:45:00,
2013-04-26 05:50:00,50.9,41.8,30.07,NNW,342,0.0,0.0,71,0.00,,,0.00,WeatherCatV1.15B25,2013-04-26 12:50:00,
2013-04-26 05:55:00,50.6,41.9,30.07,NNW,342,0.0,0.0,72,0.00,,,0.00,WeatherCatV1.15B25,2013-04-26 12:55:00,
2013-04-26 06:00:00,50.4,42.1,30.07,NNW,342,0.0,0.0,73,0.00,,,0.00,WeatherCatV1.15B25,2013-04-26 13:00:00,
2013-04-26 06:05:00,50.1,41.4,30.07,NNW,342,0.0,0.0,72,0.00,,,0.00,WeatherCatV1.15B25,2013-04-26 13:05:00,
2013-04-26 06:10:00,50.0,41.7,30.07,NNW,342,0.0,0.0,73,0.00,,,0.00,WeatherCatV1.15B25,2013-04-26 13:10:00,
2013-04-26 06:15:00,49.9,41.9,30.08,NNW,342,0.0,0.0,74,0.00,,,0.00,WeatherCatV1.15B25,2013-04-26 13:15:00,
2013-04-26 06:20:00,49.7,42.8,30.08,NNW,342,0.0,0.0,77,0.00,,,0.00,WeatherCatV1.15B25,2013-04-26 13:20:00,
2013-04-26 06:25:00,49.7,43.5,30.08,NNW,342,0.0,0.0,79,0.00,,,0.00,WeatherCatV1.15B25,2013-04-26 13:25:00,
2013-04-26 06:30:00,49.5,43.3,30.09,NNW,342,0.0,0.0,79,0.00,,,0.00,WeatherCatV1.15B25,2013-04-26 13:30:00,
2013-04-26 06:35:00,49.4,43.2,30.09,NNW,342,0.0,0.0,79,0.00,,,0.00,WeatherCatV1.15B25,2013-04-26 13:35:00,
2013-04-26 06:40:00,49.4,43.2,30.09,NNW,342,0.0,0.0,79,0.00,,,0.00,WeatherCatV1.15B25,2013-04-26 13:40:00,
2013-04-26 06:45:00,49.3,43.4,30.09,NNW,342,0.0,0.0,80,0.00,,,0.00,WeatherCatV1.15B25,2013-04-26 13:45:00,
2013-04-26 06:50:00,49.1,43.2,30.09,NNW,342,0.0,0.0,80,0.00,,,0.00,WeatherCatV1.15B25,2013-04-26 13:50:00,
2013-04-26 06:55:00,49.0,43.7,30.09,NNW,342,0.0,0.0,82,0.00,,,0.00,WeatherCatV1.15B25,2013-04-26 13:55:00,
2013-04-26 07:00:00,49.0,44.1,30.10,NNW,342,0.0,0.0,83,0.00,,,0.00,WeatherCatV1.15B25,2013-04-26 14:00:00,
2013-04-26 07:05:00,48.9,44.0,30.10,NNW,342,0.0,0.0,83,0.00,,,0.00,WeatherCatV1.15B25,2013-04-26 14:05:00,
2013-04-26 07:10:00,48.8,44.2,30.10,NNW,342,0.0,0.0,84,0.00,,,0.00,WeatherCatV1.15B25,2013-04-26 14:10:00,
2013-04-26 07:15:00,48.8,44.2,30.11,NNW,342,0.0,0.0,84,0.00,,,0.00,WeatherCatV1.15B25,2013-04-26 14:15:00,
2013-04-26 07:20:00,48.7,44.1,30.11,NNW,342,0.0,0.0,84,0.00,,,0.00,WeatherCatV1.15B25,2013-04-26 14:20:00,
2013-04-26 07:25:00,48.7,44.1,30.11,NNW,342,0.0,0.0,84,0.00,,,0.00,WeatherCatV1.15B25,2013-04-26 14:25:00,
2013-04-26 07:30:00,48.6,44.0,30.11,NNW,342,0.0,0.0,84,0.00,,,0.00,WeatherCatV1.15B25,2013-04-26 14:30:00,
2013-04-26 07:35:00,48.6,44.0,30.11,NNW,342,0.0,0.0,84,0.00,,,0.00,WeatherCatV1.15B25,2013-04-26 14:35:00,
2013-04-26 07:40:00,48.5,43.9,30.11,East,89,0.0,0.0,84,0.00,,,0.00,WeatherCatV1.15B25,2013-04-26 14:40:00,
2013-04-26 07:45:00,48.5,44.2,30.12,East,89,0.0,0.0,85,0.00,,,0.00,WeatherCatV1.15B25,2013-04-26 14:45:00,
2013-04-26 07:50:00,48.5,44.2,30.12,East,89,0.0,0.0,85,0.00,,,0.00,WeatherCatV1.15B25,2013-04-26 14:50:00,
2013-04-26 07:55:00,48.5,44.5,30.12,East,89,0.0,0.0,86,0.00,,,0.00,WeatherCatV1.15B25,2013-04-26 14:55:00,
2013-04-26 08:00:00,48.7,44.7,30.12,SE,134,0.0,1.0,86,0.00,,,0.00,WeatherCatV1.15B25,2013-04-26 15:00:00,
2013-04-26 08:05:00,48.8,45.1,30.12,SSE,148,0.0,1.0,87,0.00,,,0.00,WeatherCatV1.15B25,2013-04-26 15:05:00,
2013-04-26 08:10:00,49.0,45.3,30.12,SE,146,0.0,0.0,87,0.00,,,0.00,WeatherCatV1.15B25,2013-04-26 15:10:00,
2013-04-26 08:15:00,49.2,45.8,30.13,SE,146,0.0,1.0,88,0.00,,,0.00,WeatherCatV1.15B25,2013-04-26 15:15:00,
2013-04-26 08:20:00,49.3,45.9,30.13,SE,146,0.0,0.0,88,0.00,,,0.00,WeatherCatV1.15B25,2013-04-26 15:20:00,
2013-04-26 08:25:00,49.6,46.2,30.13,SE,146,0.0,0.0,88,0.00,,,0.00,WeatherCatV1.15B25,2013-04-26 15:25:00,
2013-04-26 08:30:00,50.0,46.3,30.13,SE,146,0.0,0.0,87,0.00,,,0.00,WeatherCatV1.15B25,2013-04-26 15:30:00,
2013-04-26 08:35:00,50.5,46.8,30.13,SE,146,0.0,1.0,87,0.00,,,0.00,WeatherCatV1.15B25,2013-04-26 15:35:00,
2013-04-26 08:40:00,50.9,46.9,30.13,SE,146,1.0,1.0,86,0.00,,,0.00,WeatherCatV1.15B25,2013-04-26 15:40:00,
2013-04-26 08:45:00,51.2,47.2,30.14,SE,146,0.0,0.0,86,0.00,,,0.00,WeatherCatV1.15B25,2013-04-26 15:45:00,
2013-04-26 08:50:00,51.4,47.0,30.14,SSE,160,1.0,3.0,85,0.00,,,0.00,WeatherCatV1.15B25,2013-04-26 15:50:00,
2013-04-26 08:55:00,51.6,47.5,30.14,SSE,153,0.0,1.0,86,0.00,,,0.00,WeatherCatV1.15B25,2013-04-26 15:55:00,
2013-04-26 09:00:00,51.9,47.5,30.14,SSE,153,1.0,1.0,85,0.00,,,0.00,WeatherCatV1.15B25,2013-04-26 16:00:00,
2013-04-26 09:05:00,52.1,47.4,30.14,SSE,150,0.0,1.0,84,0.00,,,0.00,WeatherCatV1.15B25,2013-04-26 16:05:00,
2013-04-26 09:10:00,52.3,47.6,30.14,SSE,155,1.0,1.0,84,0.00,,,0.00,WeatherCatV1.15B25,2013-04-26 16:10:00,
2013-04-26 09:15:00,52.5,47.8,30.14,SSE,155,0.0,0.0,84,0.00,,,0.00,WeatherCatV1.15B25,2013-04-26 16:15:00,
2013-04-26 09:20:00,52.8,47.8,30.14,SSE,155,0.0,1.0,83,0.00,,,0.00,WeatherCatV1.15B25,2013-04-26 16:20:00,
2013-04-26 09:25:00,53.1,47.8,30.14,SSE,155,0.0,1.0,82,0.00,,,0.00,WeatherCatV1.15B25,2013-04-26 16:25:00,
2013-04-26 09:30:00,53.4,48.4,30.14,SSE,155,0.0,1.0,83,0.00,,,0.00,WeatherCatV1.15B25,2013-04-26 16:30:00,
2013-04-26 09:35:00,53.9,48.5,30.14,SSE,155,0.0,1.0,82,0.00,,,0.00,WeatherCatV1.15B25,2013-04-26 16:35:00,
2013-04-26 09:40:00,54.4,48.7,30.14,SSE,148,0.0,1.0,81,0.00,,,0.00,WeatherCatV1.15B25,2013-04-26 16:40:00,
2013-04-26 09:45:00,54.8,49.1,30.14,SE,145,1.0,2.0,81,0.00,,,0.00,WeatherCatV1.15B25,2013-04-26 16:45:00,
2013-04-26 09:50:00,55.0,48.9,30.14,SE,145,0.0,0.0,80,0.00,,,0.00,WeatherCatV1.15B25,2013-04-26 16:50:00,
2013-04-26 09:55:00,55.5,49.4,30.14,SE,146,0.0,2.0,80,0.00,,,0.00,WeatherCatV1.15B25,2013-04-26 16:55:00,
2013-04-26 10:00:00,56.1,49.7,30.14,SE,146,1.0,1.0,79,0.00,,,0.00,WeatherCatV1.15B25,2013-04-26 17:00:00,
2013-04-26 10:05:00,56.8,50.4,30.14,SSE,155,0.0,1.0,79,0.00,,,0.00,WeatherCatV1.15B25,2013-04-26 17:05:00,
2013-04-26 10:10:00,57.4,50.2,30.14,SSE,155,0.0,0.0,77,0.00,,,0.00,WeatherCatV1.15B25,2013-04-26 17:10:00,
2013-04-26 10:15:00,57.9,50.4,30.15,SE,144,0.0,2.0,76,0.00,,,0.00,WeatherCatV1.15B25,2013-04-26 17:15:00,
2013-04-26 10:20:00,58.1,50.2,30.15,SE,142,0.0,0.0,75,0.00,,,0.00,WeatherCatV1.15B25,2013-04-26 17:20:00,
2013-04-26 10:25:00,58.2,50.3,30.15,SE,138,1.0,2.0,75,0.00,,,0.00,WeatherCatV1.15B25,2013-04-26 17:25:00,
2013-04-26 10:30:00,58.3,50.8,30.15,SE,129,1.0,2.0,76,0.00,,,0.00,WeatherCatV1.15B25,2013-04-26 17:30:00,
2013-04-26 10:35:00,58.6,50.3,30.15,SE,137,0.0,2.0,74,0.00,,,0.00,WeatherCatV1.15B25,2013-04-26 17:35:00,
2013-04-26 10:40:00,58.9,51.3,30.15,SE,137,0.0,1.0,76,0.00,,,0.00,WeatherCatV1.15B25,2013-04-26 17:40:00,
2013-04-26 10:45:00,59.4,51.1,30.15,SE,144,2.0,3.0,74,0.00,,,0.00,WeatherCatV1.15B25,2013-04-26 17:45:00,
2013-04-26 10:50:00,59.4,51.1,30.15,SE,129,0.0,1.0,74,0.00,,,0.00,WeatherCatV1.15B25,2013-04-26 17:50:00,
2013-04-26 10:55:00,59.8,51.9,30.15,SE,135,0.0,2.0,75,0.00,,,0.00,WeatherCatV1.15B25,2013-04-26 17:55:00,
2013-04-26 11:00:00,60.5,52.2,30.15,SE,145,0.0,1.0,74,0.00,,,0.00,WeatherCatV1.15B25,2013-04-26 18:00:00,
2013-04-26 11:05:00,61.2,52.1,30.15,SSE,147,0.0,1.0,72,0.00,,,0.00,WeatherCatV1.15B25,2013-04-26 18:05:00,
2013-04-26 11:10:00,62.0,52.5,30.15,SE,144,0.0,2.0,71,0.00,,,0.00,WeatherCatV1.15B25,2013-04-26 18:10:00,
2013-04-26 11:15:00,62.8,52.9,30.15,SE,144,0.0,1.0,70,0.00,,,0.00,WeatherCatV1.15B25,2013-04-26 18:15:00,
2013-04-26 11:20:00,63.6,52.8,30.15,SSE,154,0.0,1.0,68,0.00,,,0.00,WeatherCatV1.15B25,2013-04-26 18:20:00,
2013-04-26 11:25:00,64.1,52.9,30.15,SE,142,1.0,2.0,67,0.00,,,0.00,WeatherCatV1.15B25,2013-04-26 18:25:00,
2013-04-26 11:30:00,64.2,52.6,30.15,SE,144,1.0,1.0,66,0.00,,,0.00,WeatherCatV1.15B25,2013-04-26 18:30:00,
2013-04-26 11:35:00,64.3,53.1,30.15,SSE,150,0.0,0.0,67,0.00,,,0.00,WeatherCatV1.15B25,2013-04-26 18:35:00,
2013-04-26 11:40:00,64.6,53.4,30.15,SE,143,0.0,1.0,67,0.00,,,0.00,WeatherCatV1.15B25,2013-04-26 18:40:00,
2013-04-26 11:45:00,65.0,53.4,30.15,ESE,123,2.0,2.0,66,0.00,,,0.00,WeatherCatV1.15B25,2013-04-26 18:45:00,
2013-04-26 11:50:00,65.4,52.9,30.15,South,176,0.0,2.0,64,0.00,,,0.00,WeatherCatV1.15B25,2013-04-26 18:50:00,
2013-04-26 11:55:00,65.4,53.3,30.15,SE,142,0.0,1.0,65,0.00,,,0.00,WeatherCatV1.15B25,2013-04-26 18:55:00,
2013-04-26 12:00:00,65.4,52.9,30.15,SSE,147,0.0,1.0,64,0.00,,,0.00,WeatherCatV1.15B25,2013-04-26 19:00:00,
2013-04-26 12:05:00,65.8,52.8,30.15,SSE,154,0.0,2.0,63,0.00,,,0.00,WeatherCatV1.15B25,2013-04-26 19:05:00,
2013-04-26 12:10:00,66.2,53.7,30.15,SE,146,1.0,2.0,64,0.00,,,0.00,WeatherCatV1.15B25,2013-04-26 19:10:00,
2013-04-26 12:15:00,67.0,53.5,30.15,South,175,0.0,1.0,62,0.00,,,0.00,WeatherCatV1.15B25,2013-04-26 19:15:00,
2013-04-26 12:20:00,67.4,53.5,30.15,SE,126,0.0,1.0,61,0.00,,,0.00,WeatherCatV1.15B25,2013-04-26 19:20:00,
2013-04-26 12:25:00,67.7,54.6,30.15,SE,142,0.0,2.0,63,0.00,,,0.00,WeatherCatV1.15B25,2013-04-26 19:25:00,
2013-04-26 12:30:00,68.6,54.1,30.15,SE,138,0.0,1.0,60,0.00,,,0.00,WeatherCatV1.15B25,2013-04-26 19:30:00,
2013-04-26 12:35:00,68.6,53.7,30.15,SE,124,0.0,1.0,59,0.00,,,0.00,WeatherCatV1.15B25,2013-04-26 19:35:00,
2013-04-26 12:40:00,68.8,53.9,30.15,ESE,123,2.0,2.0,59,0.00,,,0.00,WeatherCatV1.15B25,2013-04-26 19:40:00,
2013-04-26 12:45:00,68.9,54.4,30.15,ESE,120,1.0,1.0,60,0.00,,,0.00,WeatherCatV1.15B25,2013-04-26 19:45:00,
2013-04-26 12:50:00,69.0,54.1,30.15,SE,146,3.0,3.0,59,0.00,,,0.00,WeatherCatV1.15B25,2013-04-26 19:50:00,
2013-04-26 12:55:00,69.2,53.8,30.15,SSE,152,1.0,3.0,58,0.00,,,0.00,WeatherCatV1.15B25,2013-04-26 19:55:00,
2013-04-26 13:00:00,68.9,53.5,30.15,SE,140,1.0,3.0,58,0.00,,,0.00,WeatherCatV1.15B25,2013-04-26 20:00:00,
2013-04-26 13:05:00,68.8,53.9,30.15,SSE,158,0.0,2.0,59,0.00,,,0.00,WeatherCatV1.15B25,2013-04-26 20:05:00,
2013-04-26 13:10:00,69.1,53.7,30.15,SE,142,0.0,2.0,58,0.00,,,0.00,WeatherCatV1.15B25,2013-04-26 20:10:00,
2013-04-26 13:15:00,69.3,53.9,30.15,NE,54,0.0,1.0,58,0.00,,,0.00,WeatherCatV1.15B25,2013-04-26 20:15:00,
2013-04-26 13:20:00,69.9,54.0,30.15,SE,136,0.0,3.0,57,0.00,,,0.00,WeatherCatV1.15B25,2013-04-26 20:20:00,
2013-04-26 13:25:00,69.8,54.3,30.15,ESE,116,1.0,2.0,58,0.00,,,0.00,WeatherCatV1.15B25,2013-04-26 20:25:00,
2013-04-26 13:30:00,70.1,54.1,30.15,ESE,111,0.0,2.0,57,0.00,,,0.00,WeatherCatV1.15B25,2013-04-26 20:30:00,
2013-04-26 13:35:00,70.5,55.0,30.15,SSE,156,1.0,2.0,58,0.00,,,0.00,WeatherCatV1.15B25,2013-04-26 20:35:00,
2013-04-26 13:40:00,70.8,54.8,30.15,SE,138,0.0,0.0,57,0.00,,,0.00,WeatherCatV1.15B25,2013-04-26 20:40:00,
2013-04-26 13:45:00,70.9,54.4,30.14,SE,139,1.0,1.0,56,0.00,,,0.00,WeatherCatV1.15B25,2013-04-26 20:45:00,
2013-04-26 13:50:00,71.0,55.5,30.14,ESE,121,0.0,1.0,58,0.00,,,0.00,WeatherCatV1.15B25,2013-04-26 20:50:00,
2013-04-26 13:55:00,71.0,55.0,30.14,SSE,156,1.0,2.0,57,0.00,,,0.00,WeatherCatV1.15B25,2013-04-26 20:55:00,
2013-04-26 14:00:00,71.0,55.0,30.14,SSE,149,2.0,2.0,57,0.00,,,0.00,WeatherCatV1.15B25,2013-04-26 21:00:00,
2013-04-26 14:05:00,71.1,55.6,30.14,SE,134,0.0,2.0,58,0.00,,,0.00,WeatherCatV1.15B25,2013-04-26 21:05:00,
2013-04-26 14:10:00,71.3,54.8,30.14,SE,143,0.0,2.0,56,0.00,,,0.00,WeatherCatV1.15B25,2013-04-26 21:10:00,
2013-04-26 14:15:00,71.2,55.2,30.14,SSE,160,1.0,2.0,57,0.00,,,0.00,WeatherCatV1.15B25,2013-04-26 21:15:00,
2013-04-26 14:20:00,71.0,55.0,30.14,SE,125,0.0,2.0,57,0.00,,,0.00,WeatherCatV1.15B25,2013-04-26 21:20:00,
2013-04-26 14:25:00,71.2,55.2,30.14,East,100,0.0,1.0,57,0.00,,,0.00,WeatherCatV1.15B25,2013-04-26 21:25:00,
2013-04-26 14:30:00,71.1,54.1,30.14,ESE,104,0.0,1.0,55,0.00,,,0.00,WeatherCatV1.15B25,2013-04-26 21:30:00,
2013-04-26 14:35:00,71.2,55.2,30.14,ESE,104,0.0,0.0,57,0.00,,,0.00,WeatherCatV1.15B25,2013-04-26 21:35:00,
2013-04-26 14:40:00,71.5,55.5,30.14,NNW,344,0.0,1.0,57,0.00,,,0.00,WeatherCatV1.15B25,2013-04-26 21:40:00,
2013-04-26 14:45:00,71.5,54.5,30.14,NNW,345,0.0,2.0,55,0.00,,,0.00,WeatherCatV1.15B25,2013-04-26 21:45:00,
2013-04-26 14:50:00,71.5,54.5,30.14,SE,142,2.0,2.0,55,0.00,,,0.00,WeatherCatV1.15B25,2013-04-26 21:50:00,
2013-04-26 14:55:00,71.0,54.5,30.14,SE,144,1.0,3.0,56,0.00,,,0.00,WeatherCatV1.15B25,2013-04-26 21:55:00,
2013-04-26 15:00:00,70.7,54.2,30.14,SE,124,0.0,1.0,56,0.00,,,0.00,WeatherCatV1.15B25,2013-04-26 22:00:00,
2013-04-26 15:05:00,70.6,54.1,30.14,SSE,155,0.0,2.0,56,0.00,,,0.00,WeatherCatV1.15B25,2013-04-26 22:05:00,
2013-04-26 15:10:00,70.6,54.6,30.14,SE,137,0.0,2.0,57,0.00,,,0.00,WeatherCatV1.15B25,2013-04-26 22:10:00,
2013-04-26 15:15:00,70.4,54.4,30.14,SE,146,0.0,1.0,57,0.00,,,0.00,WeatherCatV1.15B25,2013-04-26 22:15:00,
2013-04-26 15:20:00,70.1,53.7,30.14,East,83,0.0,1.0,56,0.00,,,0.00,WeatherCatV1.15B25,2013-04-26 22:20:00,
2013-04-26 15:25:00,69.9,54.0,30.14,SE,130,0.0,2.0,57,0.00,,,0.00,WeatherCatV1.15B25,2013-04-26 22:25:00,
2013-04-26 15:30:00,69.8,54.3,30.14,ESE,123,0.0,3.0,58,0.00,,,0.00,WeatherCatV1.15B25,2013-04-26 22:30:00,
2013-04-26 15:35:00,69.6,54.2,30.14,SE,127,1.0,2.0,58,0.00,,,0.00,WeatherCatV1.15B25,2013-04-26 22:35:00,
2013-04-26 15:40:00,69.5,54.1,30.14,SE,139,0.0,2.0,58,0.00,,,0.00,WeatherCatV1.15B25,2013-04-26 22:40:00,
2013-04-26 15:45:00,69.5,54.5,30.13,ENE,76,0.0,0.0,59,0.00,,,0.00,WeatherCatV1.15B25,2013-04-26 22:45:00,
2013-04-26 15:50:00,69.6,54.2,30.13,SE,127,2.0,2.0,58,0.00,,,0.00,WeatherCatV1.15B25,2013-04-26 22:50:00,
2013-04-26 15:55:00,69.5,54.5,30.13,ESE,108,0.0,1.0,59,0.00,,,0.00,WeatherCatV1.15B25,2013-04-26 22:55:00,
2013-04-26 16:00:00,69.4,54.0,30.13,ESE,106,0.0,0.0,58,0.00,,,0.00,WeatherCatV1.15B25,2013-04-26 23:00:00,
2013-04-26 16:05:00,69.2,54.3,30.13,SE,143,1.0,1.0,59,0.00,,,0.00,WeatherCatV1.15B25,2013-04-26 23:05:00,
2013-04-26 16:10:00,69.2,54.3,30.13,SE,138,0.0,1.0,59,0.00,,,0.00,WeatherCatV1.15B25,2013-04-26 23:10:00,
2013-04-26 16:15:00,69.3,54.3,30.13,East,92,0.0,1.0,59,0.00,,,0.00,WeatherCatV1.15B25,2013-04-26 23:15:00,
2013-04-26 16:20:00,69.2,54.3,30.13,SSW,200,1.0,1.0,59,0.00,,,0.00,WeatherCatV1.15B25,2013-04-26 23:20:00,
2013-04-26 16:25:00,69.0,54.1,30.13,ENE,75,0.0,0.0,59,0.00,,,0.00,WeatherCatV1.15B25,2013-04-26 23:25:00,
2013-04-26 16:30:00,68.9,54.0,30.13,SE,138,0.0,1.0,59,0.00,,,0.00,WeatherCatV1.15B25,2013-04-26 23:30:00,
2013-04-26 16:35:00,68.8,53.9,30.13,ESE,108,0.0,2.0,59,0.00,,,0.00,WeatherCatV1.15B25,2013-04-26 23:35:00,
2013-04-26 16:40:00,68.7,54.2,30.13,ESE,113,0.0,1.0,60,0.00,,,0.00,WeatherCatV1.15B25,2013-04-26 23:40:00,
2013-04-26 16:45:00,68.5,54.1,30.13,SE,136,1.0,1.0,60,0.00,,,0.00,WeatherCatV1.15B25,2013-04-26 23:45:00,
2013-04-26 16:50:00,68.4,54.0,30.13,SE,131,0.0,1.0,60,0.00,,,0.00,WeatherCatV1.15B25,2013-04-26 23:50:00,
2013-04-26 17:05:00,68.0,54.0,30.13,SE,134,0.0,1.0,61,0.00,,,0.00,WeatherCatV1.15B25,2013-04-27 00:05:00,
2013-04-26 17:10:00,67.9,53.9,30.13,SE,142,0.0,0.0,61,0.00,,,0.00,WeatherCatV1.15B25,2013-04-27 00:10:00,
2013-04-26 17:15:00,67.6,53.2,30.12,SE,133,0.0,1.0,60,0.00,,,0.00,WeatherCatV1.15B25,2013-04-27 00:15:00,
2013-04-26 17:20:00,67.3,53.4,30.12,SE,132,0.0,2.0,61,0.00,,,0.00,WeatherCatV1.15B25,2013-04-27 00:20:00,
2013-04-26 17:25:00,67.0,53.5,30.12,SE,132,0.0,1.0,62,0.00,,,0.00,WeatherCatV1.15B25,2013-04-27 00:25:00,
2013-04-26 17:30:00,66.9,53.4,30.13,SE,127,1.0,1.0,62,0.00,,,0.00,WeatherCatV1.15B25,2013-04-27 00:30:00,
2013-04-26 17:35:00,66.6,52.7,30.13,SE,129,0.0,1.0,61,0.00,,,0.00,WeatherCatV1.15B25,2013-04-27 00:35:00,
2013-04-26 17:40:00,66.3,52.9,30.13,SE,128,0.0,0.0,62,0.00,,,0.00,WeatherCatV1.15B25,2013-04-27 00:40:00,
2013-04-26 17:45:00,66.1,52.7,30.13,SE,131,0.0,0.0,62,0.00,,,0.00,WeatherCatV1.15B25,2013-04-27 00:45:00,
2013-04-26 17:50:00,65.8,52.8,30.13,SE,131,0.0,0.0,63,0.00,,,0.00,WeatherCatV1.15B25,2013-04-27 00:50:00,
2013-04-26 17:55:00,65.7,52.8,30.13,SE,131,0.0,0.0,63,0.00,,,0.00,WeatherCatV1.15B25,2013-04-27 00:55:00,
2013-04-26 18:00:00,65.4,52.5,30.13,SE,131,0.0,0.0,63,0.00,,,0.00,WeatherCatV1.15B25,2013-04-27 01:00:00,
2013-04-26 18:05:00,65.3,52.4,30.13,SE,131,0.0,0.0,63,0.00,,,0.00,WeatherCatV1.15B25,2013-04-27 01:05:00,
2013-04-26 18:10:00,65.1,52.6,30.13,SE,138,0.0,0.0,64,0.00,,,0.00,WeatherCatV1.15B25,2013-04-27 01:10:00,
2013-04-26 18:15:00,64.9,52.4,30.13,SE,138,0.0,1.0,64,0.00,,,0.00,WeatherCatV1.15B25,2013-04-27 01:15:00,
2013-04-26 18:20:00,64.7,52.2,30.13,SE,138,0.0,0.0,64,0.00,,,0.00,WeatherCatV1.15B25,2013-04-27 01:20:00,
2013-04-26 18:25:00,64.5,52.5,30.13,SE,138,0.0,0.0,65,0.00,,,0.00,WeatherCatV1.15B25,2013-04-27 01:25:00,
2013-04-26 18:30:00,64.3,52.3,30.13,SE,138,0.0,0.0,65,0.00,,,0.00,WeatherCatV1.15B25,2013-04-27 01:30:00,
2013-04-26 18:31:00,64.3,52.3,30.13,SE,138,0.0,0.0,65,0.00,,,0.00,WeatherCatV1.15B25,2013-04-27 01:31:00,
2013-04-26 18:36:00,64.2,52.2,30.13,SE,138,0.0,0.0,65,0.00,,,0.00,WeatherCatV1.15B25,2013-04-27 01:36:00,
2013-04-26 18:41:00,64.0,51.6,30.13,North,352,0.0,1.0,64,0.00,,,0.00,WeatherCatV1.15B25,2013-04-27 01:41:00,
2013-04-26 18:46:00,64.0,51.6,30.13,North,352,0.0,0.0,64,0.00,,,0.00,WeatherCatV1.15B25,2013-04-27 01:46:00,
2013-04-26 18:51:00,63.9,51.9,30.13,North,352,0.0,0.0,65,0.00,,,0.00,WeatherCatV1.15B25,2013-04-27 01:51:00,
2013-04-26 18:56:00,63.8,51.8,30.13,North,352,0.0,0.0,65,0.00,,,0.00,WeatherCatV1.15B25,2013-04-27 01:56:00,
2013-04-26 19:01:00,63.6,52.0,30.13,North,352,0.0,0.0,66,0.00,,,0.00,WeatherCatV1.15B25,2013-04-27 02:01:00,
2013-04-26 19:06:00,63.4,51.8,30.13,NNW,330,1.0,2.0,66,0.00,,,0.00,WeatherCatV1.15B25,2013-04-27 02:06:00,
2013-04-26 19:11:00,63.1,52.0,30.13,NNW,335,1.0,2.0,67,0.00,,,0.00,WeatherCatV1.15B25,2013-04-27 02:11:00,
2013-04-26 19:16:00,62.8,52.1,30.13,NNW,342,0.0,4.0,68,0.00,,,0.00,WeatherCatV1.15B25,2013-04-27 02:16:00,
2013-04-26 19:21:00,62.3,51.6,30.13,NNW,340,0.0,5.0,68,0.00,,,0.00,WeatherCatV1.15B25,2013-04-27 02:21:00,
2013-04-26 19:26:00,61.9,51.6,30.13,NNW,337,2.0,3.0,69,0.00,,,0.00,WeatherCatV1.15B25,2013-04-27 02:26:00,
2013-04-26 19:31:00,61.5,51.6,30.13,NNW,335,2.0,3.0,70,0.00,,,0.00,WeatherCatV1.15B25,2013-04-27 02:31:00,
2013-04-26 19:36:00,61.0,51.5,30.13,NNW,337,2.0,3.0,71,0.00,,,0.00,WeatherCatV1.15B25,2013-04-27 02:36:00,
2013-04-26 19:41:00,60.6,51.5,30.13,NNE,32,2.0,4.0,72,0.00,,,0.00,WeatherCatV1.15B25,2013-04-27 02:41:00,
2013-04-26 19:46:00,60.4,51.3,30.13,NNW,334,3.0,5.0,72,0.00,,,0.00,WeatherCatV1.15B25,2013-04-27 02:46:00,
2013-04-26 19:51:00,60.1,51.4,30.13,NNW,341,2.0,3.0,73,0.00,,,0.00,WeatherCatV1.15B25,2013-04-27 02:51:00,
2013-04-26 19:56:00,59.9,51.2,30.13,NNE,17,0.0,1.0,73,0.00,,,0.00,WeatherCatV1.15B25,2013-04-27 02:56:00,
2013-04-26 20:01:00,59.8,50.8,30.14,NNE,17,0.0,0.0,72,0.00,,,0.00,WeatherCatV1.15B25,2013-04-27 03:01:00,
2013-04-26 20:06:00,59.7,50.7,30.14,NNE,17,0.0,1.0,72,0.00,,,0.00,WeatherCatV1.15B25,2013-04-27 03:06:00,
2013-04-26 20:11:00,59.4,50.7,30.14,ENE,78,0.0,0.0,73,0.00,,,0.00,WeatherCatV1.15B25,2013-04-27 03:11:00,
2013-04-26 20:16:00,59.1,50.5,30.14,ENE,73,0.0,1.0,73,0.00,,,0.00,WeatherCatV1.15B25,2013-04-27 03:16:00,
2013-04-26 20:21:00,58.9,49.9,30.14,ENE,73,0.0,0.0,72,0.00,,,0.00,WeatherCatV1.15B25,2013-04-27 03:21:00,
2013-04-26 20:26:00,58.8,49.8,30.14,NE,49,0.0,0.0,72,0.00,,,0.00,WeatherCatV1.15B25,2013-04-27 03:26:00,
2013-04-26 20:31:00,58.7,48.6,30.14,NNW,348,0.0,0.0,69,0.00,,,0.00,WeatherCatV1.15B25,2013-04-27 03:31:00,
2013-04-26 20:36:00,58.7,48.2,30.14,NNW,348,0.0,0.0,68,0.00,,,0.00,WeatherCatV1.15B25,2013-04-27 03:36:00,
2013-04-26 20:41:00,58.7,47.0,30.14,East,81,0.0,0.0,65,0.00,,,0.00,WeatherCatV1.15B25,2013-04-27 03:41:00,
2013-04-26 20:46:00,58.8,46.2,30.14,ENE,64,0.0,0.0,63,0.00,,,0.00,WeatherCatV1.15B25,2013-04-27 03:46:00,
2013-04-26 20:51:00,58.9,45.9,30.14,ENE,64,0.0,0.0,62,0.00,,,0.00,WeatherCatV1.15B25,2013-04-27 03:51:00,
2013-04-26 20:56:00,58.9,44.6,30.14,ENE,64,0.0,0.0,59,0.00,,,0.00,WeatherCatV1.15B25,2013-04-27 03:56:00,
2013-04-26 21:01:00,59.0,43.3,30.14,ENE,64,0.0,0.0,56,0.00,,,0.00,WeatherCatV1.15B25,2013-04-27 04:01:00,
2013-04-26 21:06:00,59.0,42.4,30.14,ENE,64,0.0,0.0,54,0.00,,,0.00,WeatherCatV1.15B25,2013-04-27 04:06:00,
2013-04-26 21:11:00,59.1,41.0,30.14,ENE,64,0.0,0.0,51,0.00,,,0.00,WeatherCatV1.15B25,2013-04-27 04:11:00,
2013-04-26 21:16:00,59.1,40.0,30.15,ENE,64,0.0,0.0,49,0.00,,,0.00,WeatherCatV1.15B25,2013-04-27 04:16:00,
2013-04-26 21:21:00,59.3,41.2,30.15,ENE,64,0.0,0.0,51,0.00,,,0.00,WeatherCatV1.15B25,2013-04-27 04:21:00,
2013-04-26 21:26:00,59.3,40.1,30.15,ENE,64,0.0,0.0,49,0.00,,,0.00,WeatherCatV1.15B25,2013-04-27 04:26:00,
2013-04-26 21:31:00,59.2,38.4,30.15,ENE,64,0.0,0.0,46,0.00,,,0.00,WeatherCatV1.15B25,2013-04-27 04:31:00,
2013-04-26 21:36:00,59.1,40.5,30.15,ENE,64,0.0,1.0,50,0.00,,,0.00,WeatherCatV1.15B25,2013-04-27 04:36:00,
2013-04-26 21:41:00,58.9,37.6,30.15,NE,35,1.0,1.0,45,0.00,,,0.00,WeatherCatV1.15B25,2013-04-27 04:41:00,
2013-04-26 21:46:00,59.0,32.8,30.15,NNW,337,0.0,1.0,37,0.00,,,0.00,WeatherCatV1.15B25,2013-04-27 04:46:00,
2013-04-26 21:51:00,59.5,31.1,30.15,NNW,335,0.0,0.0,34,0.00,,,0.00,WeatherCatV1.15B25,2013-04-27 04:51:00,
2013-04-26 21:56:00,59.8,29.1,30.15,NNW,333,1.0,1.0,31,0.00,,,0.00,WeatherCatV1.15B25,2013-04-27 04:56:00,
2013-04-26 22:01:00,60.2,28.7,30.16,NNW,333,0.0,1.0,30,0.00,,,0.00,WeatherCatV1.15B25,2013-04-27 05:01:00,
2013-04-26 22:06:00,60.7,27.4,30.16,NNW,333,0.0,0.0,28,0.00,,,0.00,WeatherCatV1.15B25,2013-04-27 05:06:00,
2013-04-26 22:11:00,60.9,26.7,30.16,NNW,333,0.0,0.0,27,0.00,,,0.00,WeatherCatV1.15B25,2013-04-27 05:11:00,
2013-04-26 22:16:00,61.1,26.0,30.16,NNW,333,0.0,0.0,26,0.00,,,0.00,WeatherCatV1.15B25,2013-04-27 05:16:00,
2013-04-26 22:21:00,61.3,27.0,30.16,NNW,333,0.0,0.0,27,0.00,,,0.00,WeatherCatV1.15B25,2013-04-27 05:21:00,
2013-04-26 22:26:00,61.2,27.8,30.16,NNW,337,0.0,0.0,28,0.00,,,0.00,WeatherCatV1.15B25,2013-04-27 05:26:00,
2013-04-26 22:31:00,60.9,28.4,30.16,NNW,336,0.0,1.0,29,0.00,,,0.00,WeatherCatV1.15B25,2013-04-27 05:31:00,
2013-04-26 22:36:00,60.6,29.0,30.16,NNW,337,0.0,0.0,30,0.00,,,0.00,WeatherCatV1.15B25,2013-04-27 05:36:00,
2013-04-26 22:41:00,60.4,28.0,30.16,NNW,337,0.0,0.0,29,0.00,,,0.00,WeatherCatV1.15B25,2013-04-27 05:41:00,
2013-04-26 22:46:00,60.4,32.6,30.16,NNW,337,0.0,1.0,35,0.00,,,0.00,WeatherCatV1.15B25,2013-04-27 05:46:00,
2013-04-26 22:51:00,60.3,35.2,30.16,NNW,337,0.0,0.0,39,0.00,,,0.00,WeatherCatV1.15B25,2013-04-27 05:51:00,
2013-04-26 22:56:00,60.2,39.3,30.16,NNW,337,0.0,0.0,46,0.00,,,0.00,WeatherCatV1.15B25,2013-04-27 05:56:00,
2013-04-26 23:01:00,60.1,40.3,30.16,NNW,337,0.0,0.0,48,0.00,,,0.00,WeatherCatV1.15B25,2013-04-27 06:01:00,
2013-04-26 23:06:00,60.1,41.9,30.16,NNW,337,0.0,0.0,51,0.00,,,0.00,WeatherCatV1.15B25,2013-04-27 06:06:00,
2013-04-26 23:11:00,60.1,42.4,30.16,NNW,337,0.0,0.0,52,0.00,,,0.00,WeatherCatV1.15B25,2013-04-27 06:11:00,
2013-04-26 23:16:00,60.1,42.4,30.16,NNW,337,0.0,0.0,52,0.00,,,0.00,WeatherCatV1.15B25,2013-04-27 06:16:00,
2013-04-26 23:21:00,59.9,43.2,30.16,NNW,337,0.0,0.0,54,0.00,,,0.00,WeatherCatV1.15B25,2013-04-27 06:21:00,
2013-04-26 23:26:00,59.5,42.8,30.16,NNW,337,0.0,0.0,54,0.00,,,0.00,WeatherCatV1.15B25,2013-04-27 06:26:00,
2013-04-26 23:31:00,59.2,40.6,30.15,NNW,337,0.0,0.0,50,0.00,,,0.00,WeatherCatV1.15B25,2013-04-27 06:31:00,
2013-04-26 23:36:00,59.0,39.9,30.15,NNW,337,0.0,0.0,49,0.00,,,0.00,WeatherCatV1.15B25,2013-04-27 06:36:00,
2013-04-26 23:41:00,58.8,41.2,30.15,NNW,337,0.0,0.0,52,0.00,,,0.00,WeatherCatV1.15B25,2013-04-27 06:41:00,
2013-04-26 23:46:00,58.7,42.1,30.15,NNW,337,0.0,0.0,54,0.00,,,0.00,WeatherCatV1.15B25,2013-04-27 06:46:00,
2013-04-26 23:51:00,58.6,42.5,30.15,NNW,337,0.0,0.0,55,0.00,,,0.00,WeatherCatV1.15B25,2013-04-27 06:51:00,
2013-04-26 23:56:00,58.6,42.0,30.15,NNW,337,0.0,0.0,54,0.00,,,0.00,WeatherCatV1.15B25,2013-04-27 06:56:00,